EW9733 Weather Reports


Display with metric or nautical units.
time (UTC)temp
F
wind
direction
speed
MPH
gust
MPH
rain 1hr
in
rain 24hr
in
rain mn
in
humidity
%
barometer
mb
20210227100156 45 105 4.0 10.0 0.07 0.22 0.15 93 1021.3
20210227094530 45 126 4.0 11.0 0.07 0.21 0.14 93 1021.4
20210227093126 44 94 2.0 5.0 0.07 0.19 0.12 92 1022.0
20210227091544 44 90 3.0 8.0 0.05 0.16 0.09 91 1022.0
20210227090103 44 125 6.0 12.0 0.04 0.15 0.08 91 1022.0
20210227084548 44 128 5.0 13.0 0.04 0.14 0.07 89 1022.0
20210227083057 44 107 4.0 11.0 0.02 0.12 0.05 88 1022.6
20210227081547 44 118 3.0 11.0 0.01 0.11 0.04 88 1023.0
20210227080027 44 105 5.0 13.0 0.03 0.11 0.04 87 1022.9
20210227074544 44 88 6.0 15.0 0.02 0.10 0.03 86 1023.5
20210227073028 44 95 6.0 13.0 0.02 0.10 0.03 87 1023.5
20210227071521 44 128 8.0 14.0 0.02 0.10 0.03 87 1023.9
20210227070027 44 127 6.0 10.0 0.00 0.08 0.01 86 1024.2
20210227064520 44 121 6.0 14.0 0.00 0.08 0.01 85 1024.8
20210227063202 43 132 8.0 13.0 0.00 0.08 0.01 86 1025.1
20210227061600 43 113 5.0 11.0 0.00 0.08 0.01 87 1025.6
20210227060118 42 132 5.0 11.0 0.00 0.08 0.01 89 1025.8
20210227054628 42 83 2.0 10.0 0.02 0.08 0.01 90 1026.1
20210227053222 42 75 3.0 9.0 0.03 0.08 0.01 90 1026.3
20210227051702 41 65 4.0 9.0 0.03 0.08 0.01 90 1026.9
20210227050101 41 90 4.0 7.0 0.04 0.08 0.01 90 1027.4
20210227044622 41 132 2.0 5.0 0.02 0.06 0.06 90 1027.7
20210227043044 40 95 1.0 4.0 0.02 0.05 0.05 90 1027.8
20210227041633 40 90 0.0 3.0 0.03 0.05 0.05 90 1028.2
20210227040109 40 82 0.0 2.0 0.02 0.04 0.04 89 1028.3
20210227034710 40 82 1.0 4.0 0.03 0.04 0.04 87 1028.4
20210227033148 40 73 1.0 4.0 0.03 0.03 0.03 88 1028.8
20210227031628 40 101 0.0 3.0 0.02 0.02 0.02 87 1029.0
20210227030055 41 102 1.0 3.0 0.02 0.02 0.02 85 1029.3
20210227024600 41 99 0.0 3.0 0.01 0.01 0.01 83 1029.3
20210227023109 42 105 4.0 9.0 0.00 0.00 0.00 80 1029.5
20210227021557 42 153 0.0 3.0 0.00 0.00 0.00 81 1029.7
20210227020043 42 94 1.0 6.0 0.00 0.00 0.00 76 1029.9
20210227014713 42 108 2.0 7.0 0.00 0.00 0.00 75 1029.8
20210227013102 42 108 0.0 7.0 0.00 0.00 0.00 75 1029.8
20210227011544 42 113 2.0 9.0 0.00 0.00 0.00 75 1029.6
20210227010143 42 84 2.0 6.0 0.00 0.00 0.00 74 1030.0
20210227004549 42 113 1.0 7.0 0.00 0.00 0.00 74 1030.1
20210227003049 42 112 2.0 8.0 0.00 0.00 0.00 73 1030.0
20210227001615 42 96 2.0 5.0 0.00 0.00 0.00 72 1030.1
20210227000112 42 84 2.0 6.0 0.00 0.00 0.00 72 1030.1
20210226234546 42 132 3.0 7.0 0.00 0.00 0.00 71 1029.9
20210226233136 42 91 2.0 7.0 0.00 0.00 0.00 72 1029.8
20210226231551 42 75 2.0 7.0 0.00 0.00 0.00 71 1029.4
20210226230050 42 101 1.0 9.0 0.00 0.00 0.00 71 1029.4
20210226224526 42 97 3.0 8.0 0.00 0.00 0.00 70 1029.6
20210226223100 42 119 1.0 7.0 0.00 0.00 0.00 68 1029.8
20210226221534 43 109 2.0 7.0 0.00 0.00 0.00 67 1030.0
20210226220034 43 105 3.0 9.0 0.00 0.00 0.00 66 1030.0
20210226214544 43 98 4.0 9.0 0.00 0.00 0.00 65 1030.0
20210226213032 43 74 4.0 8.0 0.00 0.00 0.00 64 1029.9
20210226211532 43 113 4.0 11.0 0.00 0.00 0.00 63 1030.0
20210226210035 44 136 6.0 11.0 0.00 0.00 0.00 61 1029.8
20210226204531 44 131 5.0 13.0 0.00 0.00 0.00 59 1029.8
20210226203053 44 127 6.0 11.0 0.00 0.00 0.00 57 1029.7
20210226201540 45 106 4.0 11.0 0.00 0.00 0.00 56 1029.5
20210226200042 45 128 4.0 13.0 0.00 0.00 0.00 49 1029.5
20210226194527 46 132 6.0 12.0 0.00 0.00 0.00 48 1029.2
20210226193055 45 118 5.0 12.0 0.00 0.00 0.00 46 1029.0
20210226191532 45 150 3.0 12.0 0.00 0.00 0.00 47 1028.8
20210226190030 45 102 9.0 13.0 0.00 0.00 0.00 46 1028.9
20210226184522 45 143 8.0 12.0 0.00 0.00 0.00 49 1029.3
20210226183018 44 121 7.0 12.0 0.00 0.00 0.00 50 1029.3
20210226181519 44 107 7.0 13.0 0.00 0.00 0.00 52 1029.4
20210226180032 44 98 6.0 13.0 0.00 0.00 0.00 50 1030.0
20210226174525 45 120 6.0 13.0 0.00 0.00 0.00 48 1030.3
20210226173102 44 121 7.0 12.0 0.00 0.00 0.00 45 1030.4
20210226171525 44 124 4.0 10.0 0.00 0.00 0.00 46 1030.5
20210226170035 45 114 5.0 13.0 0.00 0.00 0.00 41 1030.7
20210226164516 44 98 9.0 15.0 0.00 0.00 0.00 43 1030.8
20210226163022 45 96 8.0 14.0 0.00 0.00 0.00 46 1031.0
20210226161616 45 100 6.0 12.0 0.00 0.00 0.00 49 1030.9
20210226160210 45 94 4.0 11.0 0.00 0.00 0.00 52 1030.8
20210226154742 44 82 6.0 11.0 0.00 0.00 0.00 55 1030.8
20210226153301 43 86 7.0 13.0 0.00 0.00 0.00 55 1030.6
20210226151751 43 140 3.0 12.0 0.00 0.00 0.00 57 1030.7
20210226150126 43 30 2.0 12.0 0.00 0.00 0.00 57 1030.8
20210226144646 43 53 7.0 13.0 0.00 0.00 0.00 54 1031.0
20210226143212 43 70 3.0 10.0 0.00 0.00 0.00 58 1031.3
20210226141613 41 80 9.0 13.0 0.00 0.00 0.00 57 1031.5
20210226140119 41 18 4.0 11.0 0.00 0.00 0.00 63 1031.5
20210226134551 41 51 3.0 10.0 0.00 0.00 0.00 68 1031.4
20210226133115 40 38 1.0 5.0 0.00 0.00 0.00 71 1031.2
20210226131554 37 348 0.0 2.0 0.00 0.00 0.00 77 1030.7
20210226130053 35 308 0.0 1.0 0.00 0.00 0.00 82 1030.5
20210226124605 33 308 0.0 0.0 0.00 0.00 0.00 86 1030.1
20210226123021 32 308 0.0 0.0 0.00 0.00 0.00 87 1029.7
20210226121535 31 307 0.0 0.0 0.00 0.00 0.00 88 1029.3
20210226120024 31 307 0.0 0.0 0.00 0.00 0.00 87 1028.9
20210226114523 31 307 0.0 2.0 0.00 0.00 0.00 87 1028.7
20210226113138 31 307 0.0 1.0 0.00 0.00 0.00 87 1028.3
20210226111819 32 308 0.0 2.0 0.00 0.00 0.00 88 1028.0
20210226110310 32 309 0.0 3.0 0.00 0.00 0.00 88 1028.0
20210226104641 32 313 0.0 3.0 0.00 0.00 0.00 88 1027.7
20210226103211 32 350 0.0 2.0 0.00 0.00 0.00 89 1027.5
20210226101715 32 24 0.0 2.0 0.00 0.00 0.00 88 1027.2